Dillon, Montana
Current Conditions -  °F | °C
As of 6:53 AM on Wednesday 28 Jan 2015 (Local Time) from KDLN Reporting Station
Overcast Overcast  
Wind Chill: 27°   Ceiling: 11000
Heat Index: 33°   Visibility: 10mi
Dew Point: 30°   Wind: 7mph
Humidity: 89%   Direction: 220°SW
Pressure: 30.13"   Gusts: NA
Location:  45.22°N, 112.64°W
Report Text: KDLN 281353Z AUTO 22006KT 10SM FEW060 OVC110 01/M01 A3013 RMK AO2 SLP210 T00061011
Loading
Personal Weather Stations






























Interactive Weather Map New forecast layout! Learn more

10-Day Weather Forecast

Advertisements
Track Severe Weather on mobile